Time;durP1;ratioP1;P1;durP2;ratioP2;P2;SDS_P1;SDS_P2;PMS_P1;PMS_P2;Temp;Humidity;BMP_temperature;BMP_pressure;BME280_temperature;BME280_humidity;BME280_pressure;Samples;Min_cycle;Max_cycle;Signal;HPM_P1;HPM_P2
2024/01/08 00:02:21;;;;;;;8.13;5.60;;;;;;;-2.27;82.55;102998.97;5042439;28;20025;-66
2024/01/08 00:04:47;;;;;;;7.23;6.00;;;;;;;-2.26;82.58;102992.88;5038959;28;20037;-65
2024/01/08 00:07:12;;;;;;;6.73;5.80;;;;;;;-2.27;82.47;102995.50;5043105;28;20405;-66
2024/01/08 00:09:37;;;;;;;8.87;5.90;;;;;;;-2.25;82.56;102997.16;5039174;28;20486;-66
2024/01/08 00:12:03;;;;;;;6.93;5.70;;;;;;;-2.27;82.46;102990.28;5042918;28;20024;-66
2024/01/08 00:14:28;;;;;;;6.50;5.57;;;;;;;-2.26;82.59;103000.66;5039876;28;20043;-66
2024/01/08 00:16:53;;;;;;;7.43;5.77;;;;;;;-2.26;82.58;102992.88;5041988;28;20123;-66
2024/01/08 00:19:20;;;;;;;8.53;5.70;;;;;;;-2.26;82.72;102997.22;5038739;28;20024;-66
2024/01/08 00:21:45;;;;;;;6.83;5.83;;;;;;;-2.26;82.58;103003.28;5042175;28;20517;-66
2024/01/08 00:24:10;;;;;;;6.40;5.73;;;;;;;-2.26;82.67;103000.66;5041325;28;20032;-65
2024/01/08 00:26:36;;;;;;;7.67;5.60;;;;;;;-2.25;82.77;102997.16;5037224;28;20036;-66
2024/01/08 00:29:01;;;;;;;8.70;5.97;;;;;;;-2.23;82.83;103002.34;5039902;28;20039;-66
2024/01/08 00:31:27;;;;;;;8.23;5.97;;;;;;;-2.23;83.06;103011.00;5035527;28;20681;-66
2024/01/08 00:33:53;;;;;;;7.33;6.20;;;;;;;-2.22;83.01;103010.13;5040960;28;20751;-65
2024/01/08 00:36:18;;;;;;;8.73;6.13;;;;;;;-2.19;82.97;103006.59;5042756;28;20032;-65
2024/01/08 00:38:43;;;;;;;8.50;6.40;;;;;;;-2.17;83.09;103011.75;5042586;28;20048;-66
2024/01/08 00:41:09;;;;;;;8.67;6.07;;;;;;;-2.13;83.41;103013.38;5042436;28;20021;-66
2024/01/08 00:43:34;;;;;;;7.80;6.27;;;;;;;-2.14;83.51;103006.47;5042159;28;20600;-65
2024/01/08 00:45:59;;;;;;;7.60;5.87;;;;;;;-2.13;83.28;103002.97;5035844;28;20033;-66
2024/01/08 00:48:24;;;;;;;7.87;6.40;;;;;;;-2.12;83.30;102999.47;5038018;28;20052;-66
2024/01/08 00:50:52;;;;;;;9.27;6.90;;;;;;;-2.16;83.33;102995.25;5041288;28;20058;-66
2024/01/08 00:53:17;;;;;;;7.60;6.67;;;;;;;-2.14;83.16;103002.13;5044224;28;20398;-66
2024/01/08 00:55:42;;;;;;;8.37;7.10;;;;;;;-2.13;83.15;103002.97;5041112;28;20032;-65
2024/01/08 00:58:08;;;;;;;8.40;6.97;;;;;;;-2.13;83.20;102997.78;5037791;28;20056;-65
2024/01/08 01:00:33;;;;;;;8.87;7.47;;;;;;;-2.11;83.12;103007.25;5037592;28;20024;-67
2024/01/08 01:02:58;;;;;;;8.97;7.47;;;;;;;-2.09;83.36;103009.81;5041079;28;20021;-66
2024/01/08 01:05:24;;;;;;;9.60;7.50;;;;;;;-2.12;83.36;103013.34;5041317;28;20029;-66
2024/01/08 01:07:49;;;;;;;9.47;7.50;;;;;;;-2.08;83.68;103012.38;5036285;28;20473;-66
2024/01/08 01:10:14;;;;;;;9.87;7.80;;;;;;;-2.08;83.36;103011.53;5041936;28;20021;-66
2024/01/08 01:12:40;;;;;;;8.13;7.30;;;;;;;-2.09;83.25;103002.88;5040657;28;20028;-63
2024/01/08 01:15:05;;;;;;;8.63;7.17;;;;;;;-2.08;83.11;103006.31;5040783;28;20043;-63
2024/01/08 01:17:31;;;;;;;9.93;8.43;;;;;;;-2.12;82.94;103008.16;5040735;28;20031;-63
2024/01/08 01:19:56;;;;;;;11.50;8.17;;;;;;;-2.12;82.85;103009.88;5041032;28;20027;-63
2024/01/08 01:22:21;;;;;;;10.37;8.03;;;;;;;-2.15;82.75;103009.97;5040990;28;20035;-64
2024/01/08 01:24:47;;;;;;;10.67;8.20;;;;;;;-2.16;82.62;103013.47;5038921;28;20075;-63
2024/01/08 01:27:12;;;;;;;11.00;8.33;;;;;;;-2.16;82.62;103011.72;5037538;28;20624;-63
2024/01/08 01:29:37;;;;;;;10.67;8.30;;;;;;;-2.19;82.72;103004.84;5037187;28;20025;-63
2024/01/08 01:32:04;;;;;;;8.97;8.07;;;;;;;-2.16;82.52;103009.09;5038883;28;20040;-64
2024/01/08 01:34:30;;;;;;;8.97;7.70;;;;;;;-2.19;82.34;103003.97;5041908;28;20033;-63
2024/01/08 01:36:55;;;;;;;10.80;8.00;;;;;;;-2.20;82.20;103004.88;5040046;28;20556;-63
2024/01/08 01:39:21;;;;;;;10.60;7.60;;;;;;;-2.23;82.07;103011.00;5041140;28;20523;-63
2024/01/08 01:41:47;;;;;;;9.20;7.60;;;;;;;-2.27;81.96;103011.97;5043040;28;20036;-64
2024/01/08 01:44:13;;;;;;;10.87;7.73;;;;;;;-2.31;81.88;103015.53;5041954;28;20075;-63
2024/01/08 01:46:38;;;;;;;10.07;7.53;;;;;;;-2.34;81.95;103018.19;5037463;28;20021;-64
2024/01/08 01:49:04;;;;;;;8.30;7.27;;;;;;;-2.37;82.09;103010.44;5045355;28;20035;-63
2024/01/08 01:51:30;;;;;;;9.50;8.00;;;;;;;-2.40;82.13;103015.72;5048048;28;20041;-63
2024/01/08 01:53:57;;;;;;;11.27;7.97;;;;;;;-2.43;82.17;103015.78;5047574;28;20154;-63
2024/01/08 01:56:23;;;;;;;10.07;7.60;;;;;;;-2.48;82.36;103017.63;5039760;28;20021;-63
2024/01/08 01:58:49;;;;;;;8.93;7.73;;;;;;;-2.47;82.31;103021.09;5042900;28;20492;-63
2024/01/08 02:01:14;;;;;;;11.23;7.97;;;;;;;-2.53;82.35;103019.50;5045798;28;20027;-64
2024/01/08 02:03:41;;;;;;;10.03;8.13;;;;;;;-2.55;82.46;103019.53;5043251;28;20025;-63
2024/01/08 02:06:11;;;;;;;9.47;8.13;;;;;;;-2.57;82.80;103029.09;5045070;28;20029;-63
2024/01/08 02:08:37;;;;;;;11.60;7.67;;;;;;;-2.58;82.82;103031.75;5047235;28;20132;-63
2024/01/08 02:11:03;;;;;;;10.37;7.90;;;;;;;-2.59;83.07;103037.84;5044235;28;20029;-63
2024/01/08 02:13:28;;;;;;;9.20;7.97;;;;;;;-2.62;83.25;103037.88;5041759;28;20021;-63
2024/01/08 02:15:54;;;;;;;9.63;8.07;;;;;;;-2.63;83.52;103033.56;5041926;28;20075;-63
2024/01/08 02:18:19;;;;;;;9.27;8.00;;;;;;;-2.61;83.62;103042.19;5042401;28;20528;-63
2024/01/08 02:20:45;;;;;;;11.77;8.37;;;;;;;-2.61;83.71;103037.84;5043504;28;20130;-63
2024/01/08 02:23:10;;;;;;;11.17;8.10;;;;;;;-2.59;83.68;103040.44;5044471;28;20598;-63
2024/01/08 02:25:36;;;;;;;10.40;7.60;;;;;;;-2.58;83.89;103043.00;5040863;28;20494;-63
2024/01/08 02:28:02;;;;;;;9.77;7.63;;;;;;;-2.58;84.20;103036.94;5044318;28;20025;-64
2024/01/08 02:30:27;;;;;;;9.37;7.33;;;;;;;-2.59;84.26;103035.22;5042814;28;20016;-64
2024/01/08 02:32:52;;;;;;;8.70;7.00;;;;;;;-2.61;84.24;103036.97;5042156;28;20033;-63
2024/01/08 02:35:18;;;;;;;9.53;6.90;;;;;;;-2.66;84.07;103038.81;5042586;28;20035;-63
2024/01/08 02:37:43;;;;;;;9.30;6.87;;;;;;;-2.69;83.97;103036.28;5045471;28;20039;-64
2024/01/08 02:40:08;;;;;;;9.63;7.00;;;;;;;-2.69;83.90;103036.28;5051317;28;20013;-62
2024/01/08 02:42:37;;;;;;;9.60;6.63;;;;;;;-2.73;83.87;103038.09;5042389;28;20092;-63
2024/01/08 02:45:03;;;;;;;10.00;6.87;;;;;;;-2.73;84.06;103051.09;5040886;28;20078;-63
2024/01/08 02:47:28;;;;;;;9.90;7.17;;;;;;;-2.76;83.94;103048.56;5044640;28;20025;-63
2024/01/08 02:49:53;;;;;;;10.10;6.97;;;;;;;-2.78;84.18;103050.34;5038867;28;20052;-63
2024/01/08 02:52:18;;;;;;;9.20;6.97;;;;;;;-2.79;84.09;103048.63;5042939;28;20910;-63
2024/01/08 02:54:44;;;;;;;8.47;6.70;;;;;;;-2.83;84.14;103049.59;5042943;28;20029;-63
2024/01/08 02:57:09;;;;;;;12.30;6.70;;;;;;;-2.85;84.00;103051.34;5036477;28;20040;-63
2024/01/08 02:59:34;;;;;;;9.90;7.20;;;;;;;-2.88;84.19;103047.06;5036484;28;21444;-62
2024/01/08 03:02:00;;;;;;;10.67;7.47;;;;;;;-2.90;84.23;103051.41;5042951;28;20029;-64
2024/01/08 03:04:25;;;;;;;12.83;6.97;;;;;;;-2.91;84.40;103059.25;5041888;28;20025;-63
2024/01/08 03:06:50;;;;;;;10.87;7.13;;;;;;;-2.93;84.47;103056.69;5042362;28;20078;-63
2024/01/08 03:09:16;;;;;;;10.27;7.43;;;;;;;-2.95;84.56;103058.47;5043615;28;20037;-64
2024/01/08 03:11:41;;;;;;;10.03;7.00;;;;;;;-2.97;84.63;103060.22;5043320;28;20037;-64
2024/01/08 03:14:06;;;;;;;9.47;6.90;;;;;;;-2.97;84.61;103056.78;5043957;28;20039;-63
2024/01/08 03:16:31;;;;;;;9.97;7.03;;;;;;;-2.97;84.84;103054.19;5042233;28;20446;-63
2024/01/08 03:18:57;;;;;;;10.03;7.17;;;;;;;-2.98;84.87;103052.47;5037012;28;20048;-63
2024/01/08 03:21:22;;;;;;;9.53;6.87;;;;;;;-2.98;85.01;103055.06;5044079;28;20028;-64
2024/01/08 03:23:47;;;;;;;11.47;7.37;;;;;;;-3.00;84.85;103051.63;5042305;28;20116;-62
2024/01/08 03:26:13;;;;;;;11.53;7.10;;;;;;;-3.00;84.92;103051.63;5042289;28;20667;-63
2024/01/08 03:28:38;;;;;;;9.20;6.70;;;;;;;-3.01;84.88;103055.13;5043327;28;20055;-63
2024/01/08 03:31:04;;;;;;;10.27;7.27;;;;;;;-3.02;85.13;103056.00;5043930;28;20046;-63
2024/01/08 03:33:29;;;;;;;10.87;7.07;;;;;;;-3.03;85.09;103054.31;5043107;28;20017;-62
2024/01/08 03:35:55;;;;;;;9.80;7.00;;;;;;;-3.05;85.19;103056.94;5040775;28;20360;-63
2024/01/08 03:38:20;;;;;;;10.10;7.03;;;;;;;-3.04;85.31;103063.84;5044592;28;20405;-64
2024/01/08 03:40:45;;;;;;;10.90;7.00;;;;;;;-3.04;85.18;103063.84;5042733;28;20546;-63
2024/01/08 03:43:12;;;;;;;11.07;7.50;;;;;;;-3.03;85.48;103060.34;5043488;28;20090;-64
2024/01/08 03:45:37;;;;;;;11.50;7.57;;;;;;;-3.01;85.51;103063.78;5041527;28;20131;-63
2024/01/08 03:48:03;;;;;;;10.07;7.00;;;;;;;-3.02;85.52;103059.47;5037882;28;20376;-64
2024/01/08 03:50:28;;;;;;;10.47;7.17;;;;;;;-2.99;85.43;103059.41;5045538;28;20025;-63
2024/01/08 03:52:54;;;;;;;10.70;7.10;;;;;;;-2.98;85.52;103055.91;5045808;28;20028;-63
2024/01/08 03:55:19;;;;;;;9.60;7.20;;;;;;;-2.98;85.37;103060.25;5041363;28;20020;-63
2024/01/08 03:57:44;;;;;;;9.87;6.77;;;;;;;-2.92;85.30;103057.53;5040616;28;20025;-63
2024/01/08 04:00:10;;;;;;;8.73;6.67;;;;;;;-2.90;85.36;103061.81;5040947;28;20046;-62
2024/01/08 04:02:38;;;;;;;8.60;6.60;;;;;;;-2.91;85.43;103057.50;5040139;28;20025;-63
2024/01/08 04:05:04;;;;;;;11.60;7.13;;;;;;;-2.86;85.42;103054.84;5038948;28;20031;-63
2024/01/08 04:07:30;;;;;;;11.00;6.80;;;;;;;-2.85;85.17;103059.16;5040360;28;20025;-62
2024/01/08 04:09:55;;;;;;;12.47;7.20;;;;;;;-2.82;85.25;103059.94;5043171;28;20557;-63
2024/01/08 04:12:21;;;;;;;9.00;6.70;;;;;;;-2.81;85.13;103058.22;5040715;28;20033;-63
2024/01/08 04:14:46;;;;;;;9.87;6.57;;;;;;;-2.78;85.04;103060.75;5042381;28;20128;-63
2024/01/08 04:17:11;;;;;;;11.17;6.60;;;;;;;-2.79;85.06;103064.22;5044765;28;20481;-63
2024/01/08 04:19:36;;;;;;;10.17;6.13;;;;;;;-2.78;84.96;103055.53;5044689;28;20035;-63
2024/01/08 04:22:02;;;;;;;10.37;7.07;;;;;;;-2.75;84.92;103054.63;5040283;28;20021;-63
2024/01/08 04:24:27;;;;;;;9.37;6.63;;;;;;;-2.73;84.89;103058.03;5040997;28;20045;-62
2024/01/08 04:26:52;;;;;;;9.53;6.50;;;;;;;-2.78;84.81;103045.16;5040756;28;20065;-63
2024/01/08 04:29:18;;;;;;;8.90;6.43;;;;;;;-2.71;84.74;103054.53;5042749;28;20048;-63
2024/01/08 04:31:43;;;;;;;10.17;6.77;;;;;;;-2.69;84.63;103064.91;5043200;28;20033;-63
2024/01/08 04:34:09;;;;;;;12.33;6.43;;;;;;;-2.68;84.49;103051.00;5038524;28;20104;-63
2024/01/08 04:36:40;;;;;;;10.83;6.27;;;;;;;-2.66;84.67;103057.03;5043974;28;20032;-64
2024/01/08 04:39:05;;;;;;;9.97;6.40;;;;;;;-2.66;84.54;103063.09;5038180;28;20059;-63
2024/01/08 04:41:31;;;;;;;8.80;6.43;;;;;;;-2.63;84.34;103059.56;5038961;28;20112;-63
2024/01/08 04:43:56;;;;;;;9.57;6.43;;;;;;;-2.64;84.24;103055.25;5038942;28;20064;-62
2024/01/08 04:46:21;;;;;;;10.03;6.40;;;;;;;-2.63;84.38;103064.75;5042910;28;20033;-63
2024/01/08 04:48:47;;;;;;;7.57;5.87;;;;;;;-2.65;84.27;103051.78;5035940;28;20052;-63
2024/01/08 04:51:22;;;;;;;10.27;6.80;;;;;;;-2.67;84.21;103055.31;5041323;28;20029;-64
2024/01/08 04:53:47;;;;;;;10.50;6.67;;;;;;;-2.66;84.64;103055.28;5041326;28;20029;-62
2024/01/08 04:56:24;;;;;;;10.13;7.10;;;;;;;-2.63;84.48;103067.38;5037133;28;20730;-62
2024/01/08 04:58:51;;;;;;;10.63;7.00;;;;;;;-2.63;84.62;103064.75;5034773;28;20028;-64
2024/01/08 05:01:16;;;;;;;9.47;6.57;;;;;;;-2.63;84.74;103063.03;5038683;28;20068;-65
2024/01/08 05:03:42;;;;;;;9.77;7.30;;;;;;;-2.63;84.88;103056.97;5034929;28;20064;-66
2024/01/08 05:06:09;;;;;;;10.13;7.10;;;;;;;-2.63;85.03;103063.03;5040563;28;20051;-66
2024/01/08 05:08:34;;;;;;;10.23;7.17;;;;;;;-2.63;85.11;103055.22;5038683;28;20037;-65
2024/01/08 05:10:59;;;;;;;10.63;7.33;;;;;;;-2.62;85.31;103056.06;5030667;28;20040;-66
2024/01/08 05:13:25;;;;;;;10.00;6.80;;;;;;;-2.62;85.45;103051.72;5038995;28;20079;-65
2024/01/08 05:15:51;;;;;;;11.87;7.67;;;;;;;-2.63;85.70;103055.22;5038783;28;20056;-65
2024/01/08 05:18:16;;;;;;;10.20;7.23;;;;;;;-2.62;85.86;103050.88;5043465;28;20619;-65
2024/01/08 05:20:41;;;;;;;10.47;7.47;;;;;;;-2.62;85.82;103056.94;5036149;28;20044;-65
2024/01/08 05:23:07;;;;;;;13.20;8.03;;;;;;;-2.61;86.00;103056.03;5040603;28;20111;-65
2024/01/08 05:25:34;;;;;;;10.93;7.37;;;;;;;-2.59;86.39;103061.25;5040998;28;20025;-66
2024/01/08 05:27:59;;;;;;;12.50;7.70;;;;;;;-2.58;86.60;103062.94;5038704;28;20021;-65
2024/01/08 05:30:25;;;;;;;13.33;7.83;;;;;;;-2.59;86.95;103062.09;5041039;28;20055;-66
2024/01/08 05:32:50;;;;;;;12.33;8.20;;;;;;;-2.57;87.05;103062.91;5041865;28;20078;-66
2024/01/08 05:35:17;;;;;;;15.87;8.20;;;;;;;-2.57;87.31;103059.47;5039147;28;20123;-66
2024/01/08 05:37:43;;;;;;;11.27;7.73;;;;;;;-2.57;87.53;103055.13;5041772;28;20040;-66
2024/01/08 05:40:09;;;;;;;10.33;7.63;;;;;;;-2.57;87.75;103054.25;5040078;28;21153;-66
2024/01/08 05:42:34;;;;;;;13.87;8.70;;;;;;;-2.56;87.82;103053.38;5040282;28;20028;-66
2024/01/08 05:45:00;;;;;;;12.30;8.80;;;;;;;-2.57;88.03;103055.13;5042283;28;20029;-65
2024/01/08 05:47:25;;;;;;;13.00;8.50;;;;;;;-2.55;88.22;103052.47;5043873;28;20040;-65
2024/01/08 05:49:50;;;;;;;11.37;8.17;;;;;;;-2.55;88.39;103050.75;5037845;28;20041;-66
2024/01/08 05:52:16;;;;;;;14.27;8.60;;;;;;;-2.54;88.50;103055.06;5045776;28;20053;-65
2024/01/08 05:54:41;;;;;;;12.80;8.07;;;;;;;-2.53;88.65;103051.56;5038589;28;20045;-65
2024/01/08 05:57:06;;;;;;;12.70;8.23;;;;;;;-2.51;88.76;103048.94;5037780;28;20036;-65
2024/01/08 05:59:31;;;;;;;15.73;8.70;;;;;;;-2.51;88.76;103049.78;5039973;28;20858;-66
2024/01/08 06:01:57;;;;;;;13.23;8.93;;;;;;;-2.50;88.90;103048.03;5041966;28;21182;-65
2024/01/08 06:04:22;;;;;;;12.50;8.80;;;;;;;-2.47;89.08;103047.09;5037714;28;21157;-65
2024/01/08 06:06:49;;;;;;;13.43;8.40;;;;;;;-2.47;89.38;103053.16;5041976;28;20033;-65
2024/01/08 06:09:15;;;;;;;13.80;8.37;;;;;;;-2.46;89.50;103047.06;5046756;28;20024;-65
2024/01/08 06:11:40;;;;;;;14.50;9.07;;;;;;;-2.44;89.51;103052.25;5041417;28;20087;-66
2024/01/08 06:14:06;;;;;;;12.70;8.70;;;;;;;-2.42;89.57;103051.31;5040001;28;20049;-66
2024/01/08 06:16:35;;;;;;;13.60;9.20;;;;;;;-2.42;89.74;103056.53;5037786;28;20140;-65
2024/01/08 06:19:01;;;;;;;13.93;9.53;;;;;;;-2.48;89.92;103037.59;5039744;28;20060;-65
2024/01/08 06:21:27;;;;;;;15.90;10.00;;;;;;;-2.37;89.78;103051.22;5041419;28;20181;-65
2024/01/08 06:23:52;;;;;;;14.17;9.23;;;;;;;-2.36;89.86;103053.78;5039691;28;20029;-66
2024/01/08 06:26:17;;;;;;;16.67;9.17;;;;;;;-2.35;90.15;103042.47;5040075;28;20025;-66
2024/01/08 06:28:43;;;;;;;13.27;9.30;;;;;;;-2.34;89.99;103046.78;5037693;28;20072;-65
2024/01/08 06:31:08;;;;;;;14.87;9.67;;;;;;;-2.32;90.02;103046.75;5035775;28;20663;-65
2024/01/08 06:33:34;;;;;;;14.80;9.70;;;;;;;-2.32;90.13;103045.00;5040369;28;20482;-66
2024/01/08 06:35:59;;;;;;;14.33;9.43;;;;;;;-2.33;90.26;103042.44;5038316;28;20034;-66
2024/01/08 06:38:25;;;;;;;15.53;10.03;;;;;;;-2.35;90.26;103036.44;5047374;28;20036;-65
2024/01/08 06:40:50;;;;;;;16.97;10.40;;;;;;;-2.29;90.29;103033.72;5044935;28;20025;-66
2024/01/08 06:43:16;;;;;;;14.97;9.40;;;;;;;-2.29;90.25;103034.56;5044661;28;20072;-66
2024/01/08 06:45:41;;;;;;;16.97;10.20;;;;;;;-2.28;90.37;103038.03;5045185;28;21771;-65
2024/01/08 06:48:06;;;;;;;15.10;9.90;;;;;;;-2.26;90.41;103034.50;5041975;28;20047;-65
2024/01/08 06:50:32;;;;;;;14.63;10.40;;;;;;;-2.26;90.51;103034.50;5044772;28;20037;-66
2024/01/08 06:52:57;;;;;;;16.93;10.67;;;;;;;-2.26;90.66;103033.63;5041899;28;20032;-66
2024/01/08 06:55:22;;;;;;;16.93;10.40;;;;;;;-2.26;90.57;103037.09;5045795;28;20043;-66
2024/01/08 06:57:49;;;;;;;15.37;10.13;;;;;;;-2.24;90.61;103037.06;5040214;28;20029;-66
2024/01/08 07:00:15;;;;;;;15.80;9.70;;;;;;;-2.23;90.62;103038.78;5035331;28;20040;-66
2024/01/08 07:02:41;;;;;;;15.00;9.83;;;;;;;-2.23;nan;103044.84;5035929;28;20132;-65
2024/01/08 07:05:07;;;;;;;14.47;10.00;;;;;;;-2.22;90.64;103038.75;5036339;28;20148;-64
2024/01/08 07:07:32;;;;;;;16.93;10.17;;;;;;;-2.21;90.49;103045.66;5037315;28;20082;-65
2024/01/08 07:09:57;;;;;;;19.17;10.37;;;;;;;-2.20;90.48;103049.97;5040183;28;20545;-64
2024/01/08 07:12:23;;;;;;;16.33;10.30;;;;;;;-2.17;90.56;103042.97;5043336;28;20032;-64
2024/01/08 07:14:48;;;;;;;16.10;10.10;;;;;;;-2.17;90.61;103054.25;5040852;28;20033;-64
2024/01/08 07:17:13;;;;;;;17.53;9.77;;;;;;;-2.18;90.61;103055.13;5038532;28;20028;-63
2024/01/08 07:19:39;;;;;;;17.83;9.93;;;;;;;-2.16;90.63;103060.31;5043624;28;20028;-64
2024/01/08 07:22:04;;;;;;;16.30;9.73;;;;;;;-2.16;90.66;103055.09;5034575;28;20104;-65
2024/01/08 07:24:29;;;;;;;13.83;9.70;;;;;;;-2.14;90.61;103055.91;5039566;28;20033;-64
2024/01/08 07:26:57;;;;;;;17.20;10.20;;;;;;;-2.15;90.96;103057.66;5035734;28;20132;-65
2024/01/08 07:29:22;;;;;;;13.43;9.53;;;;;;;-2.14;90.91;103056.78;5041705;28;20139;-64
2024/01/08 07:31:47;;;;;;;16.30;10.07;;;;;;;-2.11;90.86;103068.88;5038879;28;20070;-64
2024/01/08 07:34:13;;;;;;;14.90;9.93;;;;;;;-2.11;90.61;103061.06;5040954;28;20413;-63
2024/01/08 07:36:38;;;;;;;15.97;10.10;;;;;;;-2.10;90.63;103070.56;5041296;28;20041;-64
2024/01/08 07:39:03;;;;;;;16.20;9.77;;;;;;;-2.10;90.96;103079.25;5039214;28;20406;-63
2024/01/08 07:41:29;;;;;;;18.03;10.20;;;;;;;-2.09;91.00;103077.50;5040106;28;20082;-63
2024/01/08 07:43:54;;;;;;;14.10;9.67;;;;;;;-2.08;91.02;103080.06;5038944;28;20057;-65
2024/01/08 07:46:19;;;;;;;14.60;9.20;;;;;;;-2.07;90.97;103080.91;5041710;28;20036;-63
2024/01/08 07:48:45;;;;;;;15.47;9.57;;;;;;;-2.07;90.88;103080.91;5034881;28;20044;-64
2024/01/08 07:51:10;;;;;;;13.53;9.03;;;;;;;-2.06;90.90;103086.09;5040502;28;20758;-64
2024/01/08 07:53:36;;;;;;;13.90;9.20;;;;;;;-2.03;90.88;103082.56;5037570;28;20799;-63
2024/01/08 07:56:02;;;;;;;13.37;9.17;;;;;;;-2.06;90.61;103078.28;5043818;28;20044;-64
2024/01/08 07:58:27;;;;;;;14.30;9.23;;;;;;;-2.01;90.94;103096.44;5039523;28;20028;-63
2024/01/08 08:00:53;;;;;;;14.87;9.80;;;;;;;-2.02;90.96;103085.16;5038196;28;20039;-64
2024/01/08 08:03:18;;;;;;;13.90;9.30;;;;;;;-2.00;90.86;103082.50;5035782;28;20107;-63
2024/01/08 08:05:44;;;;;;;14.03;9.17;;;;;;;-1.98;91.00;103078.13;5036700;28;20539;-64
2024/01/08 08:08:09;;;;;;;15.03;9.50;;;;;;;-1.99;90.99;103084.22;5037580;28;20063;-64
2024/01/08 08:10:34;;;;;;;14.33;9.53;;;;;;;-1.98;90.69;103086.78;5037106;28;20048;-64
2024/01/08 08:13:01;;;;;;;13.27;8.97;;;;;;;-1.96;91.08;103090.22;5035126;28;20083;-64
2024/01/08 08:15:26;;;;;;;16.50;9.20;;;;;;;-1.96;91.00;103086.75;5038680;28;20035;-64
2024/01/08 08:17:52;;;;;;;13.37;8.97;;;;;;;-1.97;90.98;103091.09;5041231;28;20033;-64
2024/01/08 08:20:18;;;;;;;14.40;8.97;;;;;;;-1.95;90.97;103091.06;5035939;28;20029;-65
2024/01/08 08:22:43;;;;;;;15.40;9.20;;;;;;;-1.94;90.93;103088.44;5045171;28;20056;-66
2024/01/08 08:25:08;;;;;;;13.17;8.70;;;;;;;-1.93;90.94;103091.91;5038534;28;20028;-64
2024/01/08 08:27:35;;;;;;;12.90;9.17;;;;;;;-1.92;90.96;103088.41;5039807;28;20486;-64
2024/01/08 08:30:01;;;;;;;12.70;8.93;;;;;;;-1.92;90.79;103097.06;5038966;28;20036;-65
2024/01/08 08:32:26;;;;;;;14.37;8.70;;;;;;;-1.92;91.25;103096.22;5038002;28;20523;-65
2024/01/08 08:34:52;;;;;;;11.97;8.00;;;;;;;-1.90;91.06;103104.84;5038146;28;20032;-65
2024/01/08 08:37:17;;;;;;;11.60;7.87;;;;;;;-1.89;91.17;103101.34;5039950;28;20060;-65
2024/01/08 08:39:42;;;;;;;12.43;8.30;;;;;;;-1.86;91.03;103106.47;5035612;28;20076;-65
2024/01/08 08:42:08;;;;;;;13.10;8.43;;;;;;;-1.85;91.17;103100.38;5037031;28;20425;-64
2024/01/08 08:44:34;;;;;;;10.50;7.73;;;;;;;-1.83;91.26;103108.16;5040363;28;20036;-64
2024/01/08 08:47:00;;;;;;;14.93;8.63;;;;;;;-1.85;91.27;103107.34;5045601;28;20021;-64
2024/01/08 08:49:25;;;;;;;11.37;8.00;;;;;;;-1.82;90.99;103105.50;5039458;28;20021;-64
2024/01/08 08:51:51;;;;;;;12.80;8.20;;;;;;;-1.81;91.25;103102.00;5035547;28;20103;-64
2024/01/08 08:54:16;;;;;;;11.80;8.20;;;;;;;-1.81;90.94;103099.41;5038648;28;20033;-64
2024/01/08 08:56:42;;;;;;;12.50;8.23;;;;;;;-1.80;90.92;103100.25;5040369;28;20505;-65
2024/01/08 08:59:07;;;;;;;12.53;7.97;;;;;;;-1.78;90.87;103096.72;5041207;28;20032;-64
2024/01/08 09:01:32;;;;;;;11.10;8.03;;;;;;;-1.75;90.94;103109.69;5038926;28;20136;-64
2024/01/08 09:03:58;;;;;;;11.73;8.23;;;;;;;-1.73;90.87;103107.06;5036369;28;20118;-64
2024/01/08 09:06:24;;;;;;;12.83;8.23;;;;;;;-1.73;91.12;103109.66;5038264;28;20024;-64
2024/01/08 09:08:53;;;;;;;12.37;7.93;;;;;;;-1.74;90.72;103108.78;5038456;28;20112;-64
2024/01/08 09:11:19;;;;;;;13.10;8.13;;;;;;;-1.75;90.51;103108.81;5040316;28;20418;-64
2024/01/08 09:13:46;;;;;;;11.60;8.20;;;;;;;-1.75;90.49;103116.63;5039825;28;20040;-64
2024/01/08 09:16:14;;;;;;;11.60;7.87;;;;;;;-1.76;90.61;103113.19;5040355;28;20074;-64
2024/01/08 09:18:40;;;;;;;12.67;8.33;;;;;;;-1.76;90.79;103123.59;5029817;28;20025;-64
2024/01/08 09:21:09;;;;;;;10.97;8.13;;;;;;;-1.76;91.42;103121.00;5037183;28;20029;-64
2024/01/08 09:23:34;;;;;;;13.77;8.48;;;;;;;-1.75;91.56;103117.50;5040062;28;20367;-64
2024/01/08 09:26:00;;;;;;;11.90;8.30;;;;;;;-1.71;91.73;103121.75;5040021;28;20548;-64
2024/01/08 09:28:25;;;;;;;11.60;8.63;;;;;;;-1.73;91.61;103114.88;5040191;28;20677;-64
2024/01/08 09:30:52;;;;;;;9.73;8.00;;;;;;;-1.75;91.55;103125.31;5038771;28;20589;-64
2024/01/08 09:33:17;;;;;;;12.63;8.77;;;;;;;-1.74;91.33;103121.81;5039111;28;20115;-64
2024/01/08 09:35:43;;;;;;;12.97;8.50;;;;;;;-1.75;91.14;103130.50;5037301;28;20090;-64
2024/01/08 09:38:08;;;;;;;12.07;8.37;;;;;;;-1.75;91.08;103135.72;5038964;28;20033;-64
2024/01/08 09:40:34;;;;;;;13.80;8.67;;;;;;;-1.75;91.36;103138.31;5040789;28;20028;-64
2024/01/08 09:43:05;;;;;;;12.43;7.93;;;;;;;-1.71;91.33;103129.56;5038585;28;20099;-64
2024/01/08 09:45:30;;;;;;;12.47;8.23;;;;;;;-1.71;91.18;103123.50;5041272;28;20436;-64
2024/01/08 09:47:56;;;;;;;11.37;8.33;;;;;;;-1.71;90.32;103134.78;5040112;28;20029;-64
2024/01/08 09:50:22;;;;;;;12.43;8.83;;;;;;;-1.70;90.20;103133.91;5037168;28;20033;-64
2024/01/08 09:52:49;;;;;;;10.93;8.07;;;;;;;-1.64;90.17;103140.72;5039450;28;20044;-65
2024/01/08 09:55:15;;;;;;;10.63;8.27;;;;;;;-1.62;89.81;103142.38;5039153;28;20587;-64
2024/01/08 09:57:41;;;;;;;10.73;8.10;;;;;;;-1.60;89.20;103135.38;5040603;28;20028;-65
2024/01/08 10:00:07;;;;;;;10.17;7.93;;;;;;;-1.61;88.72;103125.84;5037641;28;20693;-65
2024/01/08 10:02:32;;;;;;;10.37;7.53;;;;;;;-1.53;87.82;103140.44;5038376;28;20034;-65
2024/01/08 10:04:58;;;;;;;9.93;7.67;;;;;;;-1.51;87.49;103136.06;5036920;28;20025;-65
2024/01/08 10:07:24;;;;;;;11.73;8.23;;;;;;;-1.49;86.78;103132.50;5035347;28;20029;-64
2024/01/08 10:09:50;;;;;;;9.80;7.73;;;;;;;-1.46;86.48;103134.19;5039579;28;20025;-65
2024/01/08 10:12:16;;;;;;;11.03;7.40;;;;;;;-1.48;86.44;103121.19;5044024;28;20839;-64
2024/01/08 10:14:41;;;;;;;10.33;7.50;;;;;;;-1.48;86.40;103138.59;5043261;28;20029;-65
2024/01/08 10:17:07;;;;;;;15.57;8.77;;;;;;;-1.50;87.20;103135.16;5040687;28;20033;-64
2024/01/08 10:19:32;;;;;;;11.40;8.60;;;;;;;-1.54;88.06;103149.16;5045350;28;20028;-65
2024/01/08 10:22:07;;;;;;;11.63;9.03;;;;;;;-1.56;88.74;103142.22;5036783;28;20090;-64
2024/01/08 10:24:33;;;;;;;12.40;9.20;;;;;;;-1.54;89.42;103142.19;5041656;28;20036;-65
2024/01/08 10:26:58;;;;;;;13.77;9.00;;;;;;;-1.53;90.07;103135.22;5040896;28;20203;-65
2024/01/08 10:29:24;;;;;;;13.20;9.30;;;;;;;-1.48;90.43;103131.63;5042700;28;20090;-64
2024/01/08 10:31:49;;;;;;;12.70;8.83;;;;;;;-1.48;90.45;103121.19;5041728;28;20036;-64
2024/01/08 10:34:16;;;;;;;12.27;9.33;;;;;;;-1.43;89.71;103126.31;5039677;28;20028;-64
2024/01/08 10:36:42;;;;;;;10.83;8.80;;;;;;;-1.36;89.75;103120.91;5041735;28;20029;-64
2024/01/08 10:39:09;;;;;;;12.23;8.40;;;;;;;-1.36;88.83;103122.66;5041878;28;20028;-65
2024/01/08 10:41:35;;;;;;;10.20;7.90;;;;;;;-1.33;88.53;103127.81;5040253;28;20060;-64
2024/01/08 10:44:01;;;;;;;10.27;7.90;;;;;;;-1.26;87.89;103121.53;5042260;28;20551;-64
2024/01/08 10:46:28;;;;;;;10.87;8.37;;;;;;;-1.14;87.77;103112.56;5043818;28;20033;-64
2024/01/08 10:48:55;;;;;;;11.30;7.67;;;;;;;-1.02;87.51;103107.03;5042633;28;20040;-65
2024/01/08 10:51:21;;;;;;;9.57;7.13;;;;;;;-0.87;87.17;103101.38;5039986;28;20028;-64
2024/01/08 10:53:49;;;;;;;9.77;7.27;;;;;;;-0.84;86.22;103111.75;5039233;28;20746;-64
2024/01/08 10:56:18;;;;;;;10.53;7.60;;;;;;;-0.88;85.46;103106.63;5043037;28;20059;-64
2024/01/08 10:59:04;;;;;;;10.47;7.20;;;;;;;-0.94;85.05;103099.84;5041440;28;20724;-65
2024/01/08 11:01:32;;;;;;;10.73;7.30;;;;;;;-1.05;84.66;103096.69;5039943;28;20060;-64
2024/01/08 11:03:58;;;;;;;9.77;6.60;;;;;;;-1.07;84.53;103103.69;5041771;28;20021;-65
2024/01/08 11:06:24;;;;;;;11.63;7.43;;;;;;;-1.10;84.53;103093.34;5041605;28;20028;-63
2024/01/08 11:08:50;;;;;;;11.17;7.43;;;;;;;-1.13;84.58;103098.63;5040301;28;20106;-63
2024/01/08 11:11:17;;;;;;;9.50;7.50;;;;;;;-1.10;84.39;103102.00;5041264;28;20031;-64
2024/01/08 11:13:43;;;;;;;11.30;7.80;;;;;;;-1.09;84.68;103103.72;5041058;28;20708;-64